Eg Express — 5VFH20 — position and weather

sailwx.info

Track history (hours):
 
Tides and Currents Weather Stations Pressure Air Temp Water Temp Dewpoint Dewpoint Depression Visibility Wind Speed Wind Dir Waves Ship Positions

Eg Express

Last reported at 2017-Nov-15 00:59 UTC. Time now 2017-Nov-22 10:49 UTC.
Position N 16°46' W 062°26'.

Length 18 m; draft 2.8 m.

Type: Towing. MMSI: 671966000.

Date/timePositionNaut miles runAvg speedWind from/ knotsBaromVisibWave heightAir tempDewpointWater temp
2017-Nov-15 00:59N 16°46' W 062°26'2 4.3
2017-Nov-15 00:30N 16°45' W 062°24'2 4.2
2017-Nov-15 00:00N 16°44' W 062°22'2 4.3
2017-Nov-14 23:30N 16°44' W 062°20'2 4.4
2017-Nov-14 22:59N 16°43' W 062°17'4 0.7
2017-Nov-14 17:04N 16°41' W 062°13'0 5.8
2017-Nov-14 16:59N 16°41' W 062°13'3 6.0
2017-Nov-14 16:30N 16°38' W 062°12'3 6.1
2017-Nov-14 16:00N 16°36' W 062°10'3 5.9
2017-Nov-14 15:30N 16°33' W 062°08'3 5.9
2017-Nov-14 15:00N 16°31' W 062°06'3 6.0
2017-Nov-14 14:30N 16°28' W 062°05'3 5.9
2017-Nov-14 13:58N 16°26' W 062°03'3 5.8
2017-Nov-14 13:27N 16°23' W 062°01'  
Track history (hours):
 
Tides and Currents Weather Stations Pressure Air Temp Water Temp Dewpoint Dewpoint Depression Visibility Wind Speed Wind Dir Waves Ship Positions

Eg Express

Last reported at 2017-Nov-15 00:59 UTC. Time now 2017-Nov-22 10:49 UTC.
Position N 16°46' W 062°26'.

Length 18 m; draft 2.8 m.

Type: Towing. MMSI: 671966000.

Date/timePositionNaut miles runAvg speedWind from/ knotsBaromVisibWave heightAir tempDewpointWater temp
2017-Nov-15 00:59N 16°46' W 062°26'2 4.3
2017-Nov-15 00:30N 16°45' W 062°24'2 4.2
2017-Nov-15 00:00N 16°44' W 062°22'2 4.3
2017-Nov-14 23:30N 16°44' W 062°20'2 4.4
2017-Nov-14 22:59N 16°43' W 062°17'4 0.7
2017-Nov-14 17:04N 16°41' W 062°13'0 5.8
2017-Nov-14 16:59N 16°41' W 062°13'3 6.0
2017-Nov-14 16:30N 16°38' W 062°12'3 6.1
2017-Nov-14 16:00N 16°36' W 062°10'3 5.9
2017-Nov-14 15:30N 16°33' W 062°08'3 5.9
2017-Nov-14 15:00N 16°31' W 062°06'3 6.0
2017-Nov-14 14:30N 16°28' W 062°05'3 5.9
2017-Nov-14 13:58N 16°26' W 062°03'3 5.8
2017-Nov-14 13:27N 16°23' W 062°01'  

Dump ship's entire track history